Time;durP1;ratioP1;P1;durP2;ratioP2;P2;SDS_P1;SDS_P2;PMS_P1;PMS_P2;Temp;Humidity;BMP_temperature;BMP_pressure;BME280_temperature;BME280_humidity;BME280_pressure;Samples;Min_cycle;Max_cycle;Signal;HPM_P1;HPM_P2
2023/05/05 00:01:16;;;;;;;;;;;16.10;99.90;;;;;;5077173;28;19910;-67
2023/05/05 00:03:42;;;;;;;;;;;16.10;99.90;;;;;;5078911;28;19928;-67
2023/05/05 00:06:09;;;;;;;;;;;16.20;99.90;;;;;;5078422;28;19916;-68
2023/05/05 00:08:36;;;;;;;;;;;16.30;99.90;;;;;;5077828;28;19919;-69
2023/05/05 00:11:02;;;;;;;;;;;16.40;99.90;;;;;;5077330;28;19908;-67
2023/05/05 00:13:29;;;;;;;;;;;16.40;99.90;;;;;;5077131;28;19940;-68
2023/05/05 00:15:56;;;;;;;;;;;16.40;99.90;;;;;;5078347;28;19909;-70
2023/05/05 00:18:22;;;;;;;;;;;16.50;99.90;;;;;;5077290;28;19947;-68
2023/05/05 00:20:49;;;;;;;;;;;16.60;99.90;;;;;;5077686;28;20160;-65
2023/05/05 00:23:16;;;;;;;;;;;16.70;99.90;;;;;;5078992;28;19915;-67
2023/05/05 00:25:43;;;;;;;;;;;16.80;99.90;;;;;;5079249;28;20352;-68
2023/05/05 00:28:10;;;;;;;;;;;16.80;99.90;;;;;;5078645;28;19923;-65
2023/05/05 00:30:36;;;;;;;;;;;16.90;99.90;;;;;;5076936;28;19908;-66
2023/05/05 00:33:03;;;;;;;;;;;17.00;99.90;;;;;;5077057;28;19920;-67
2023/05/05 00:35:30;;;;;;;;;;;17.10;99.90;;;;;;5076850;28;19916;-64
2023/05/05 00:37:57;;;;;;;;;;;17.20;99.90;;;;;;5080010;28;19962;-64
2023/05/05 00:40:24;;;;;;;;;;;17.30;99.90;;;;;;5074488;28;19966;-65
2023/05/05 00:42:51;;;;;;;;;;;17.40;99.90;;;;;;5073178;28;19916;-67
2023/05/05 00:45:18;;;;;;;;;;;17.50;99.90;;;;;;5072260;28;20369;-67
2023/05/05 00:47:48;;;;;;;;;;;17.60;99.90;;;;;;5077720;28;19908;-70
2023/05/05 00:50:25;;;;;;;;;;;17.70;99.90;;;;;;5077678;28;19909;-65
2023/05/05 00:53:00;;;;;;;;;;;17.90;99.90;;;;;;5078488;28;20272;-67
2023/05/05 00:55:27;;;;;;;;;;;18.10;99.90;;;;;;5074661;28;19908;-67
2023/05/05 00:57:55;;;;;;;;;;;18.00;99.90;;;;;;5077515;28;19919;-64
2023/05/05 01:00:21;;;;;;;;;;;18.20;99.70;;;;;;5076308;28;19916;-65
2023/05/05 01:02:48;;;;;;;;;;;18.30;99.60;;;;;;5077154;28;20396;-67
2023/05/05 01:05:15;;;;;;;;;;;18.40;99.60;;;;;;5077084;28;19908;-66
2023/05/05 01:07:48;;;;;;;;;;;18.40;98.90;;;;;;5077583;28;20413;-65
2023/05/05 01:10:15;;;;;;;;;;;18.50;98.40;;;;;;5076869;28;19912;-67
2023/05/05 01:12:57;;;;;;;;;;;18.60;98.70;;;;;;5076443;28;20741;-67
2023/05/05 01:15:32;;;;;;;;;;;18.70;98.30;;;;;;5076708;28;19916;-68
2023/05/05 01:18:05;;;;;;;;;;;18.70;98.40;;;;;;5076287;28;20386;-65
2023/05/05 01:20:41;;;;;;;;;;;18.80;97.70;;;;;;5076856;28;19915;-65
2023/05/05 01:23:09;;;;;;;;;;;18.90;97.80;;;;;;5077884;28;19965;-67
2023/05/05 01:25:48;;;;;;;;;;;19.10;97.90;;;;;;5077596;28;19915;-69
2023/05/05 01:28:34;;;;;;;;;;;19.40;97.50;;;;;;5076172;28;19968;-67
2023/05/05 01:31:19;;;;;;;;;;;19.60;96.40;;;;;;5075474;28;19962;-65
2023/05/05 01:33:49;;;;;;;;;;;19.80;96.40;;;;;;5056491;28;19924;-67
2023/05/05 01:36:21;;;;;;;;;;;19.90;95.70;;;;;;5076669;28;19914;-68
2023/05/05 01:38:51;;;;;;;;;;;19.90;96.70;;;;;;5075614;28;19912;-64
2023/05/05 01:41:18;;;;;;;;;;;20.10;96.80;;;;;;5075683;28;19943;-66
2023/05/05 01:43:46;;;;;;;;;;;20.20;96.70;;;;;;5074877;28;19912;-66
2023/05/05 01:46:14;;;;;;;;;;;20.40;96.30;;;;;;5077418;28;19916;-66
2023/05/05 01:48:42;;;;;;;;;;;20.40;95.60;;;;;;5077044;28;20260;-66
2023/05/05 01:51:08;;;;;;;;;;;20.70;95.90;;;;;;5075806;28;19923;-67
2023/05/05 01:53:35;;;;;;;;;;;20.90;95.30;;;;;;5076483;28;19924;-64
2023/05/05 01:56:03;;;;;;;;;;;20.90;94.90;;;;;;5074582;28;20460;-66
2023/05/05 01:58:31;;;;;;;;;;;21.10;95.20;;;;;;5076523;28;19962;-67
2023/05/05 02:00:58;;;;;;;;;;;21.10;94.60;;;;;;5076047;28;19908;-67
2023/05/05 02:03:25;;;;;;;;;;;21.40;94.40;;;;;;5073028;28;20070;-68
2023/05/05 02:05:52;;;;;;;;;;;21.10;94.30;;;;;;5071213;28;19999;-66
2023/05/05 02:08:20;;;;;;;;;;;21.10;94.40;;;;;;5075284;28;20754;-67
2023/05/05 02:10:47;;;;;;;;;;;21.20;93.70;;;;;;5077049;28;19916;-66
2023/05/05 02:13:14;;;;;;;;;;;21.30;94.00;;;;;;5075504;28;19916;-65
2023/05/05 02:15:42;;;;;;;;;;;21.30;94.00;;;;;;5076399;28;19977;-65
2023/05/05 02:18:08;;;;;;;;;;;21.50;94.10;;;;;;5074485;28;19922;-64
2023/05/05 02:20:39;;;;;;;;;;;21.60;94.00;;;;;;5075666;28;19912;-65
2023/05/05 02:23:06;;;;;;;;;;;21.70;94.10;;;;;;5074268;28;20557;-66
2023/05/05 02:25:45;;;;;;;;;;;22.00;94.00;;;;;;5071376;28;19947;-66
2023/05/05 02:28:17;;;;;;;;;;;22.10;92.90;;;;;;5073587;28;19908;-69
2023/05/05 02:30:47;;;;;;;;;;;22.10;93.00;;;;;;5076094;28;20361;-65
2023/05/05 02:33:15;;;;;;;;;;;22.30;92.60;;;;;;5074769;28;19947;-68
2023/05/05 02:35:42;;;;;;;;;;;22.60;92.40;;;;;;5075348;28;19970;-65
2023/05/05 02:38:12;;;;;;;;;;;22.80;92.50;;;;;;5074491;28;19907;-67
2023/05/05 02:40:41;;;;;;;;;;;23.10;92.70;;;;;;5075220;28;20353;-65
2023/05/05 02:43:10;;;;;;;;;;;23.30;91.30;;;;;;5073946;28;19920;-66
2023/05/05 02:45:37;;;;;;;;;;;23.40;91.30;;;;;;5074945;28;20347;-66
2023/05/05 02:48:04;;;;;;;;;;;23.20;90.90;;;;;;5074438;28;19919;-65
2023/05/05 02:50:31;;;;;;;;;;;23.00;91.50;;;;;;5075075;28;20353;-65
2023/05/05 02:52:58;;;;;;;;;;;23.20;91.60;;;;;;5074297;28;19931;-65
2023/05/05 02:55:47;;;;;;;;;;;24.20;90.70;;;;;;5075202;28;19977;-66
2023/05/05 02:58:19;;;;;;;;;;;25.10;87.10;;;;;;5073533;28;19919;-67
2023/05/05 03:01:01;;;;;;;;;;;25.60;84.70;;;;;;5074322;28;20279;-65
2023/05/05 03:03:35;;;;;;;;;;;25.50;86.00;;;;;;5074271;28;19908;-68
2023/05/05 03:06:06;;;;;;;;;;;25.40;83.80;;;;;;5073649;28;19915;-69
2023/05/05 03:08:51;;;;;;;;;;;25.30;86.10;;;;;;5073251;28;20319;-66
2023/05/05 03:11:23;;;;;;;;;;;25.70;84.40;;;;;;5072927;28;19957;-67
2023/05/05 03:13:55;;;;;;;;;;;26.60;82.90;;;;;;5074477;28;19958;-65
2023/05/05 03:16:22;;;;;;;;;;;26.70;80.70;;;;;;5073733;28;19908;-67
2023/05/05 03:18:49;;;;;;;;;;;27.00;82.30;;;;;;5073593;28;19908;-68
2023/05/05 03:21:16;;;;;;;;;;;28.10;77.60;;;;;;5072024;28;19927;-67
2023/05/05 03:23:42;;;;;;;;;;;28.30;77.20;;;;;;5075512;28;19916;-67
2023/05/05 03:26:09;;;;;;;;;;;29.20;76.10;;;;;;5073025;28;19919;-66
2023/05/05 03:28:35;;;;;;;;;;;30.50;71.80;;;;;;5073660;28;20394;-64
2023/05/05 03:31:02;;;;;;;;;;;31.50;69.00;;;;;;5074295;28;19934;-67
2023/05/05 03:33:29;;;;;;;;;;;31.90;67.60;;;;;;5073387;28;19963;-67
2023/05/05 03:35:56;;;;;;;;;;;32.90;65.10;;;;;;5074478;28;19917;-66
2023/05/05 03:38:22;;;;;;;;;;;33.30;64.90;;;;;;5073365;28;20079;-65
2023/05/05 03:40:49;;;;;;;;;;;33.80;62.00;;;;;;5074228;28;20483;-67
2023/05/05 03:43:16;;;;;;;;;;;33.00;63.60;;;;;;5072652;28;20015;-67
2023/05/05 03:45:42;;;;;;;;;;;34.00;63.00;;;;;;5072679;28;19908;-69
2023/05/05 03:48:09;;;;;;;;;;;34.30;61.10;;;;;;5053616;28;19920;-67
2023/05/05 03:50:36;;;;;;;;;;;34.40;60.30;;;;;;5054293;28;20113;-67
2023/05/05 03:53:03;;;;;;;;;;;34.70;58.70;;;;;;5074428;28;19977;-68
2023/05/05 03:55:29;;;;;;;;;;;35.50;58.50;;;;;;5073929;28;20365;-67
2023/05/05 03:57:56;;;;;;;;;;;35.00;58.70;;;;;;5074534;28;19912;-64
2023/05/05 04:00:23;;;;;;;;;;;34.70;57.70;;;;;;5072426;28;19927;-67
2023/05/05 04:02:50;;;;;;;;;;;33.90;58.90;;;;;;5073607;28;19920;-68
2023/05/05 04:05:17;;;;;;;;;;;33.40;59.90;;;;;;5073201;28;20361;-69
2023/05/05 04:07:43;;;;;;;;;;;34.00;59.40;;;;;;5073837;28;19912;-65
2023/05/05 04:10:10;;;;;;;;;;;34.70;57.90;;;;;;5073850;28;19923;-67
2023/05/05 04:12:37;;;;;;;;;;;34.30;58.60;;;;;;5074686;28;20295;-69
2023/05/05 04:15:04;;;;;;;;;;;34.30;58.50;;;;;;5074406;28;19908;-68
2023/05/05 04:17:30;;;;;;;;;;;33.60;57.30;;;;;;5074452;28;19968;-68
2023/05/05 04:19:57;;;;;;;;;;;33.30;59.60;;;;;;5074053;28;21040;-66
2023/05/05 04:22:23;;;;;;;;;;;33.30;58.00;;;;;;5072972;28;20564;-67
2023/05/05 04:24:50;;;;;;;;;;;33.00;58.80;;;;;;5074001;28;19912;-66
2023/05/05 04:27:17;;;;;;;;;;;32.30;58.60;;;;;;5073391;28;19917;-66
2023/05/05 04:29:43;;;;;;;;;;;31.30;60.50;;;;;;5073298;28;19912;-67
2023/05/05 04:32:10;;;;;;;;;;;30.90;60.00;;;;;;5076571;28;19916;-72
2023/05/05 04:34:37;;;;;;;;;;;30.40;60.70;;;;;;5077723;28;19923;-66
2023/05/05 04:37:03;;;;;;;;;;;29.50;61.80;;;;;;5078435;28;19962;-72
2023/05/05 04:39:30;;;;;;;;;;;28.50;64.10;;;;;;5076185;28;20712;-65
2023/05/05 04:41:57;;;;;;;;;;;27.40;65.40;;;;;;5077718;28;19924;-66
2023/05/05 04:44:24;;;;;;;;;;;26.70;66.50;;;;;;5076265;28;20365;-66
2023/05/05 04:46:51;;;;;;;;;;;26.00;67.10;;;;;;5077397;28;19924;-69
2023/05/05 04:49:17;;;;;;;;;;;26.30;66.90;;;;;;5073273;28;19955;-65
2023/05/05 04:51:45;;;;;;;;;;;26.40;67.10;;;;;;5078062;28;20007;-67
2023/05/05 04:54:12;;;;;;;;;;;26.10;67.50;;;;;;5078045;28;19923;-67
2023/05/05 04:56:38;;;;;;;;;;;25.30;69.50;;;;;;5077149;28;19908;-67
2023/05/05 04:59:05;;;;;;;;;;;24.90;70.80;;;;;;5077422;28;19953;-66
2023/05/05 05:01:32;;;;;;;;;;;24.50;70.60;;;;;;5074363;28;20033;-66
2023/05/05 05:03:59;;;;;;;;;;;24.00;71.40;;;;;;5076170;28;20006;-68
2023/05/05 05:06:26;;;;;;;;;;;23.70;73.00;;;;;;5074774;28;20284;-68
2023/05/05 05:08:52;;;;;;;;;;;23.80;77.50;;;;;;5075398;28;20426;-67
2023/05/05 05:11:20;;;;;;;;;;;24.00;79.60;;;;;;5075229;28;19998;-67
2023/05/05 05:13:47;;;;;;;;;;;24.20;79.80;;;;;;5076342;28;19920;-65
2023/05/05 05:16:14;;;;;;;;;;;24.40;82.60;;;;;;5077403;28;20288;-69
2023/05/05 05:18:40;;;;;;;;;;;25.70;80.40;;;;;;5075605;28;20110;-67
2023/05/05 05:21:07;;;;;;;;;;;26.90;77.60;;;;;;5075743;28;19912;-68
2023/05/05 05:23:34;;;;;;;;;;;28.10;74.10;;;;;;5076004;28;19915;-68
2023/05/05 05:26:00;;;;;;;;;;;29.20;73.10;;;;;;5075358;28;19916;-66
2023/05/05 05:28:27;;;;;;;;;;;30.00;72.30;;;;;;5078429;28;19912;-67
2023/05/05 05:30:54;;;;;;;;;;;30.10;70.30;;;;;;5073787;28;20051;-65
2023/05/05 05:33:20;;;;;;;;;;;29.20;72.10;;;;;;5078259;28;19918;-65
2023/05/05 05:35:47;;;;;;;;;;;28.10;74.40;;;;;;5075133;28;19974;-69
2023/05/05 05:38:14;;;;;;;;;;;27.20;76.50;;;;;;5077042;28;19981;-69
2023/05/05 05:40:40;;;;;;;;;;;26.80;76.80;;;;;;5075659;28;19920;-68
2023/05/05 05:43:07;;;;;;;;;;;26.00;78.30;;;;;;5058182;28;20091;-66
2023/05/05 05:45:34;;;;;;;;;;;25.60;80.40;;;;;;5078109;28;19908;-67
2023/05/05 05:48:01;;;;;;;;;;;25.50;81.40;;;;;;5075631;28;19909;-66
2023/05/05 05:50:27;;;;;;;;;;;25.50;80.80;;;;;;5078163;28;19987;-66
2023/05/05 05:52:54;;;;;;;;;;;25.40;81.50;;;;;;5074848;28;20088;-68
2023/05/05 05:55:20;;;;;;;;;;;25.10;81.80;;;;;;5078276;28;19912;-68
2023/05/05 05:57:48;;;;;;;;;;;25.10;82.70;;;;;;5075250;28;20056;-65
2023/05/05 06:00:17;;;;;;;;;;;25.00;83.50;;;;;;5076688;28;20136;-67
2023/05/05 06:02:44;;;;;;;;;;;25.10;83.80;;;;;;5075108;28;19958;-68
2023/05/05 06:05:11;;;;;;;;;;;25.80;82.30;;;;;;5067775;28;20265;-64
2023/05/05 06:07:38;;;;;;;;;;;26.90;80.00;;;;;;5067633;28;19966;-67
2023/05/05 06:10:05;;;;;;;;;;;27.50;78.60;;;;;;5074699;28;19908;-65
2023/05/05 06:12:32;;;;;;;;;;;28.30;77.70;;;;;;5077711;28;20014;-65
2023/05/05 06:14:58;;;;;;;;;;;29.60;74.80;;;;;;5073913;28;20317;-66
2023/05/05 06:17:25;;;;;;;;;;;30.00;73.10;;;;;;5077962;28;19908;-66
2023/05/05 06:19:52;;;;;;;;;;;29.90;72.60;;;;;;5074221;28;19916;-66
2023/05/05 06:22:18;;;;;;;;;;;29.80;72.70;;;;;;5075141;28;19916;-68
2023/05/05 06:24:45;;;;;;;;;;;28.90;74.00;;;;;;5075434;28;19950;-67
2023/05/05 06:27:11;;;;;;;;;;;28.00;75.80;;;;;;5074514;28;19993;-66
2023/05/05 06:29:38;;;;;;;;;;;26.50;78.90;;;;;;5076778;28;19990;-66
2023/05/05 06:32:07;;;;;;;;;;;25.30;81.30;;;;;;5073415;28;20062;-67
2023/05/05 06:34:33;;;;;;;;;;;24.60;83.50;;;;;;5076267;28;19924;-67
2023/05/05 06:37:00;;;;;;;;;;;23.70;86.00;;;;;;5072595;28;19916;-67
2023/05/05 06:39:26;;;;;;;;;;;22.80;88.70;;;;;;5076764;28;19962;-67
2023/05/05 06:41:53;;;;;;;;;;;22.20;90.40;;;;;;5073150;28;20026;-66
2023/05/05 06:44:20;;;;;;;;;;;21.80;91.50;;;;;;5075266;28;19981;-65
2023/05/05 06:46:46;;;;;;;;;;;21.50;92.20;;;;;;5076095;28;20264;-65
2023/05/05 06:49:13;;;;;;;;;;;21.20;93.10;;;;;;5074804;28;19980;-65
2023/05/05 06:51:40;;;;;;;;;;;20.80;93.70;;;;;;5077067;28;19938;-65
2023/05/05 06:54:06;;;;;;;;;;;20.50;94.60;;;;;;5073024;28;20732;-65
2023/05/05 06:56:33;;;;;;;;;;;20.40;95.20;;;;;;5077892;28;19908;-67
2023/05/05 06:58:59;;;;;;;;;;;20.30;95.60;;;;;;5073716;28;19935;-67
2023/05/05 07:01:26;;;;;;;;;;;20.20;96.20;;;;;;5075560;28;19943;-66
2023/05/05 07:03:53;;;;;;;;;;;20.00;96.70;;;;;;5074065;28;19909;-67
2023/05/05 07:06:19;;;;;;;;;;;19.90;97.20;;;;;;5075950;28;19912;-66
2023/05/05 07:08:46;;;;;;;;;;;19.80;97.80;;;;;;5076586;28;20007;-67
2023/05/05 07:11:13;;;;;;;;;;;19.70;98.30;;;;;;5070731;28;20360;-68
2023/05/05 07:13:40;;;;;;;;;;;19.60;98.90;;;;;;5073800;28;19924;-67
2023/05/05 07:16:06;;;;;;;;;;;19.50;99.40;;;;;;5075927;28;19958;-69
2023/05/05 07:18:33;;;;;;;;;;;19.40;99.90;;;;;;5076899;28;19912;-68
2023/05/05 07:21:00;;;;;;;;;;;19.30;99.90;;;;;;5077801;28;20375;-67
2023/05/05 07:23:27;;;;;;;;;;;19.20;99.90;;;;;;5074188;28;20310;-66
2023/05/05 07:25:54;;;;;;;;;;;19.20;99.90;;;;;;5077850;28;19912;-67
2023/05/05 07:28:21;;;;;;;;;;;19.10;99.90;;;;;;5077261;28;19958;-68
2023/05/05 07:30:47;;;;;;;;;;;19.10;99.90;;;;;;5075615;28;19908;-68
2023/05/05 07:33:14;;;;;;;;;;;19.00;99.90;;;;;;5076758;28;19920;-65
2023/05/05 07:35:41;;;;;;;;;;;18.90;99.90;;;;;;5073281;28;20070;-69
2023/05/05 07:38:07;;;;;;;;;;;18.80;99.90;;;;;;5079071;28;20012;-66
2023/05/05 07:40:34;;;;;;;;;;;18.80;99.90;;;;;;5074633;28;20025;-66
2023/05/05 07:43:01;;;;;;;;;;;18.70;99.90;;;;;;5059793;28;19916;-68
2023/05/05 07:45:30;;;;;;;;;;;18.70;99.90;;;;;;5074916;28;19912;-64
2023/05/05 07:47:57;;;;;;;;;;;18.70;99.90;;;;;;5078065;28;19920;-66
2023/05/05 07:50:24;;;;;;;;;;;18.60;99.90;;;;;;5077236;28;19971;-68
2023/05/05 07:52:50;;;;;;;;;;;18.60;99.90;;;;;;5075189;28;19912;-68
2023/05/05 07:55:17;;;;;;;;;;;18.50;99.90;;;;;;5077554;28;20346;-64
2023/05/05 07:57:43;;;;;;;;;;;18.50;99.90;;;;;;5074738;28;19908;-68
2023/05/05 08:00:12;;;;;;;;;;;18.50;99.90;;;;;;5078490;28;19912;-68
2023/05/05 08:02:38;;;;;;;;;;;18.50;99.90;;;;;;5073424;28;19916;-65
2023/05/05 08:05:06;;;;;;;;;;;18.50;99.90;;;;;;5075008;28;19912;-66
2023/05/05 08:07:32;;;;;;;;;;;18.50;99.90;;;;;;5076919;28;19909;-67
2023/05/05 08:09:59;;;;;;;;;;;18.50;99.90;;;;;;5080647;28;19912;-68
2023/05/05 08:12:26;;;;;;;;;;;18.40;99.90;;;;;;5081055;28;19977;-67
2023/05/05 08:14:52;;;;;;;;;;;18.30;99.90;;;;;;5078282;28;19920;-67
2023/05/05 08:17:19;;;;;;;;;;;18.30;99.90;;;;;;5080955;28;20002;-67
2023/05/05 08:19:48;;;;;;;;;;;18.30;99.90;;;;;;5076457;28;20318;-67
2023/05/05 08:22:15;;;;;;;;;;;18.20;99.90;;;;;;5081158;28;20026;-67
2023/05/05 08:24:41;;;;;;;;;;;18.20;99.90;;;;;;5079889;28;20003;-67
2023/05/05 08:27:08;;;;;;;;;;;18.20;99.90;;;;;;5077605;28;19908;-66
2023/05/05 08:29:34;;;;;;;;;;;18.20;99.90;;;;;;5080377;28;19916;-65
2023/05/05 08:32:01;;;;;;;;;;;18.20;99.90;;;;;;5077314;28;19913;-67
2023/05/05 08:34:28;;;;;;;;;;;18.20;99.90;;;;;;5081067;28;20007;-66
2023/05/05 08:36:55;;;;;;;;;;;18.10;99.90;;;;;;5076450;28;19908;-66
2023/05/05 08:39:22;;;;;;;;;;;18.10;99.90;;;;;;5080436;28;19912;-66
2023/05/05 08:41:48;;;;;;;;;;;18.20;99.90;;;;;;5079941;28;19920;-65
2023/05/05 08:44:15;;;;;;;;;;;18.10;99.90;;;;;;5078158;28;20011;-69
2023/05/05 08:46:42;;;;;;;;;;;18.20;99.90;;;;;;5079416;28;19924;-66
2023/05/05 08:49:13;;;;;;;;;;;18.10;99.90;;;;;;5074092;28;20549;-65
2023/05/05 08:51:41;;;;;;;;;;;18.10;99.90;;;;;;5078949;28;19912;-66
2023/05/05 08:54:10;;;;;;;;;;;18.10;99.90;;;;;;5074350;28;20295;-68
2023/05/05 08:56:40;;;;;;;;;;;18.00;99.90;;;;;;5060474;28;19920;-69
2023/05/05 08:59:08;;;;;;;;;;;18.00;99.90;;;;;;5076169;28;19916;-65
2023/05/05 09:01:35;;;;;;;;;;;18.10;99.90;;;;;;5078552;28;19908;-67
2023/05/05 09:04:03;;;;;;;;;;;18.00;99.90;;;;;;5072545;28;20003;-64
2023/05/05 09:06:31;;;;;;;;;;;18.00;99.90;;;;;;5076456;28;19904;-69
2023/05/05 09:08:57;;;;;;;;;;;17.90;99.90;;;;;;5075657;28;20344;-67
2023/05/05 09:11:24;;;;;;;;;;;17.90;99.90;;;;;;5076169;28;19951;-69
2023/05/05 09:13:51;;;;;;;;;;;17.80;99.90;;;;;;5076917;28;19920;-66
2023/05/05 09:16:18;;;;;;;;;;;17.80;99.90;;;;;;5073411;28;19916;-66
2023/05/05 09:18:44;;;;;;;;;;;17.80;99.90;;;;;;5075296;28;19924;-66
2023/05/05 09:21:21;;;;;;;;;;;17.80;99.90;;;;;;5073885;28;19954;-68
2023/05/05 09:24:06;;;;;;;;;;;17.80;99.90;;;;;;5072825;28;19912;-65
2023/05/05 09:26:33;;;;;;;;;;;17.70;99.90;;;;;;5074881;28;20272;-67
2023/05/05 09:29:01;;;;;;;;;;;17.60;99.90;;;;;;5077439;28;20006;-67
2023/05/05 09:31:29;;;;;;;;;;;17.60;99.90;;;;;;5075096;28;19912;-65
2023/05/05 09:33:59;;;;;;;;;;;17.70;99.90;;;;;;5075752;28;20023;-66
2023/05/05 09:36:48;;;;;;;;;;;17.60;99.90;;;;;;5074923;28;19908;-68
2023/05/05 09:39:18;;;;;;;;;;;17.50;99.90;;;;;;5072791;28;19923;-66
2023/05/05 09:41:45;;;;;;;;;;;17.50;99.90;;;;;;5070832;28;20014;-68
2023/05/05 09:44:16;;;;;;;;;;;17.50;99.90;;;;;;5070660;28;19916;-64
2023/05/05 09:46:50;;;;;;;;;;;17.40;99.90;;;;;;5075987;28;19908;-68
2023/05/05 09:49:17;;;;;;;;;;;17.40;99.90;;;;;;5073741;28;19919;-67
2023/05/05 09:51:45;;;;;;;;;;;17.30;99.90;;;;;;5075852;28;19995;-65
2023/05/05 09:54:41;;;;;;;;;;;17.40;99.90;;;;;;5075302;28;19924;-67
2023/05/05 09:57:07;;;;;;;;;;;17.40;99.90;;;;;;5053328;28;19920;-69
2023/05/05 09:59:34;;;;;;;;;;;17.40;99.90;;;;;;5075906;28;19995;-69
2023/05/05 10:02:13;;;;;;;;;;;17.40;99.90;;;;;;5075223;28;19908;-66
2023/05/05 10:04:40;;;;;;;;;;;17.40;99.90;;;;;;5076919;28;20093;-69
2023/05/05 10:07:07;;;;;;;;;;;17.40;99.90;;;;;;5076228;28;19919;-66
2023/05/05 10:09:33;;;;;;;;;;;17.40;99.90;;;;;;5076624;28;19923;-67
2023/05/05 10:12:00;;;;;;;;;;;17.30;99.90;;;;;;5076397;28;19912;-66
2023/05/05 10:14:31;;;;;;;;;;;17.40;99.90;;;;;;5073627;28;19920;-69
2023/05/05 10:16:59;;;;;;;;;;;17.40;99.90;;;;;;5077553;28;20368;-68
2023/05/05 10:19:27;;;;;;;;;;;17.40;99.90;;;;;;5073545;28;19912;-69
2023/05/05 10:21:57;;;;;;;;;;;17.40;99.90;;;;;;5076380;28;20053;-69
2023/05/05 10:24:46;;;;;;;;;;;17.40;99.90;;;;;;5073077;28;19912;-65
2023/05/05 10:27:18;;;;;;;;;;;17.40;99.90;;;;;;5074760;28;19908;-68
2023/05/05 10:29:45;;;;;;;;;;;17.40;99.90;;;;;;5075011;28;19976;-67
2023/05/05 10:32:25;;;;;;;;;;;17.30;99.90;;;;;;5073874;28;20306;-69
2023/05/05 10:35:02;;;;;;;;;;;17.30;99.90;;;;;;5076587;28;19920;-70
2023/05/05 10:37:29;;;;;;;;;;;17.40;99.90;;;;;;5073397;28;19912;-70
2023/05/05 10:39:59;;;;;;;;;;;17.30;99.90;;;;;;5076934;28;19912;-67
2023/05/05 10:42:26;;;;;;;;;;;17.30;99.90;;;;;;5074671;28;19916;-67
2023/05/05 10:44:53;;;;;;;;;;;17.30;99.90;;;;;;5076842;28;20280;-68
2023/05/05 10:47:20;;;;;;;;;;;17.30;99.90;;;;;;5077617;28;19908;-69
2023/05/05 10:50:02;;;;;;;;;;;17.20;99.90;;;;;;5073879;28;19943;-67
2023/05/05 10:52:39;;;;;;;;;;;17.20;99.90;;;;;;5072943;28;19908;-68
2023/05/05 10:55:13;;;;;;;;;;;17.20;99.90;;;;;;5077163;28;19924;-66
2023/05/05 10:57:41;;;;;;;;;;;17.20;99.90;;;;;;5071152;28;19912;-66
2023/05/05 11:00:09;;;;;;;;;;;17.20;99.90;;;;;;5077022;28;20376;-68
2023/05/05 11:02:36;;;;;;;;;;;17.20;99.90;;;;;;5072421;28;19969;-68
2023/05/05 11:05:08;;;;;;;;;;;17.20;99.90;;;;;;5076407;28;19920;-69
2023/05/05 11:07:38;;;;;;;;;;;17.10;99.90;;;;;;5074286;28;19923;-67
2023/05/05 11:10:06;;;;;;;;;;;17.10;99.90;;;;;;5084155;28;19915;-64
2023/05/05 11:12:52;;;;;;;;;;;17.10;99.90;;;;;;5058138;28;20269;-67
2023/05/05 11:15:28;;;;;;;;;;;17.00;99.90;;;;;;5075582;28;19920;-65
2023/05/05 11:17:59;;;;;;;;;;;17.00;99.90;;;;;;5073673;28;19908;-66
2023/05/05 11:20:45;;;;;;;;;;;17.00;99.90;;;;;;5087047;28;19922;-67
2023/05/05 11:23:12;;;;;;;;;;;16.90;99.90;;;;;;5018749;28;19955;-65
2023/05/05 11:25:39;;;;;;;;;;;16.90;99.90;;;;;;5067647;28;20337;-67
2023/05/05 11:28:10;;;;;;;;;;;16.90;99.90;;;;;;5074032;28;19915;-65
2023/05/05 11:31:02;;;;;;;;;;;16.90;99.90;;;;;;5074595;28;19920;-64
2023/05/05 11:33:30;;;;;;;;;;;16.90;99.90;;;;;;5033777;28;19962;-66
2023/05/05 11:35:56;;;;;;;;;;;16.80;99.90;;;;;;5073940;28;19917;-64
2023/05/05 11:38:30;;;;;;;;;;;16.90;99.90;;;;;;5072080;28;19938;-69
2023/05/05 11:41:04;;;;;;;;;;;16.80;99.90;;;;;;5073323;28;19923;-66
2023/05/05 11:43:31;;;;;;;;;;;16.80;99.90;;;;;;5079718;28;20372;-66
2023/05/05 11:46:14;;;;;;;;;;;16.80;99.90;;;;;;5077275;28;19970;-66
2023/05/05 11:48:46;;;;;;;;;;;16.70;99.90;;;;;;5076321;28;19955;-63
2023/05/05 11:51:14;;;;;;;;;;;16.60;99.90;;;;;;5078079;28;19912;-64
2023/05/05 11:53:45;;;;;;;;;;;16.60;99.90;;;;;;5077684;28;19924;-69
2023/05/05 11:56:21;;;;;;;;;;;16.70;99.90;;;;;;5079308;28;19951;-69
2023/05/05 11:58:48;;;;;;;;;;;16.60;99.90;;;;;;5077665;28;19957;-66
2023/05/05 12:01:15;;;;;;;;;;;16.50;99.90;;;;;;5061409;28;20006;-65
2023/05/05 12:03:44;;;;;;;;;;;16.60;99.90;;;;;;5079890;28;19985;-69
2023/05/05 12:06:10;;;;;;;;;;;16.50;99.90;;;;;;5075792;28;19920;-64
2023/05/05 12:08:37;;;;;;;;;;;16.50;99.90;;;;;;5080933;28;19909;-69
2023/05/05 12:11:06;;;;;;;;;;;16.50;99.90;;;;;;5077402;28;20520;-64
2023/05/05 12:13:32;;;;;;;;;;;16.50;99.90;;;;;;5082036;28;19942;-67
2023/05/05 12:16:12;;;;;;;;;;;16.40;99.90;;;;;;5078643;28;19920;-68
2023/05/05 12:18:39;;;;;;;;;;;16.40;99.90;;;;;;5080505;28;19947;-68
2023/05/05 12:21:16;;;;;;;;;;;16.30;99.90;;;;;;5078206;28;19922;-67
2023/05/05 12:23:42;;;;;;;;;;;16.30;99.90;;;;;;5080123;28;19908;-65
2023/05/05 12:26:28;;;;;;;;;;;16.20;99.90;;;;;;5077823;28;19965;-67
2023/05/05 12:28:56;;;;;;;;;;;16.10;99.90;;;;;;5065756;28;19972;-66
2023/05/05 12:31:22;;;;;;;;;;;16.10;99.90;;;;;;5076007;28;19913;-65
2023/05/05 12:33:49;;;;;;;;;;;16.00;99.90;;;;;;5078445;28;19919;-64
2023/05/05 12:36:16;;;;;;;;;;;15.90;99.90;;;;;;5075857;28;19927;-67
2023/05/05 12:38:43;;;;;;;;;;;15.90;99.90;;;;;;5079556;28;19915;-66
2023/05/05 12:41:09;;;;;;;;;;;15.90;99.90;;;;;;5077788;28;19919;-67
2023/05/05 12:43:37;;;;;;;;;;;15.80;99.90;;;;;;5078109;28;20533;-65
2023/05/05 12:46:05;;;;;;;;;;;15.70;99.90;;;;;;5077184;28;20258;-66
2023/05/05 12:48:32;;;;;;;;;;;15.80;99.90;;;;;;5078307;28;19915;-65
2023/05/05 12:51:18;;;;;;;;;;;15.80;99.90;;;;;;5078169;28;19912;-66
2023/05/05 12:53:46;;;;;;;;;;;15.80;99.90;;;;;;5079545;28;20415;-65
2023/05/05 12:56:47;;;;;;;;;;;15.70;99.90;;;;;;5076791;28;19912;-66
2023/05/05 12:59:23;;;;;;;;;;;15.70;99.90;;;;;;4995397;28;19910;-66
2023/05/05 13:01:53;;;;;;;;;;;15.70;99.90;;;;;;5067704;28;19959;-64
2023/05/05 13:04:21;;;;;;;;;;;15.70;99.90;;;;;;5076272;28;19908;-67
2023/05/05 13:06:49;;;;;;;;;;;15.60;99.90;;;;;;5080205;28;19919;-66
2023/05/05 13:09:25;;;;;;;;;;;15.60;99.90;;;;;;5076752;28;19912;-66
2023/05/05 13:11:52;;;;;;;;;;;15.50;99.90;;;;;;5078758;28;19939;-66
2023/05/05 13:14:19;;;;;;;;;;;15.50;99.90;;;;;;5076725;28;19920;-66
2023/05/05 13:16:45;;;;;;;;;;;15.50;99.90;;;;;;5078867;28;19970;-64
2023/05/05 13:19:12;;;;;;;;;;;15.50;99.90;;;;;;5077119;28;20003;-65
2023/05/05 13:21:38;;;;;;;;;;;15.50;99.90;;;;;;5077867;28;19908;-65
2023/05/05 13:24:05;;;;;;;;;;;15.40;99.90;;;;;;5078293;28;19909;-68
2023/05/05 13:26:32;;;;;;;;;;;15.40;99.90;;;;;;5077128;28;19915;-65
2023/05/05 13:28:59;;;;;;;;;;;15.20;99.90;;;;;;5078539;28;19908;-68
2023/05/05 13:31:25;;;;;;;;;;;15.20;99.90;;;;;;5075259;28;19938;-68
2023/05/05 13:33:52;;;;;;;;;;;15.20;99.90;;;;;;5079303;28;19923;-66
2023/05/05 13:36:18;;;;;;;;;;;15.10;99.90;;;;;;5076633;28;19908;-65
2023/05/05 13:38:45;;;;;;;;;;;15.10;99.90;;;;;;5077798;28;19912;-65
2023/05/05 13:41:12;;;;;;;;;;;15.00;99.90;;;;;;5076581;28;19924;-66
2023/05/05 13:43:38;;;;;;;;;;;15.00;99.90;;;;;;5078211;28;19974;-68
2023/05/05 13:46:07;;;;;;;;;;;15.00;99.90;;;;;;5077932;28;19920;-66
2023/05/05 13:48:34;;;;;;;;;;;15.00;99.90;;;;;;5076640;28;19908;-65
2023/05/05 13:51:00;;;;;;;;;;;14.90;99.90;;;;;;5078145;28;19916;-63
2023/05/05 13:53:27;;;;;;;;;;;14.90;99.90;;;;;;5075842;28;19923;-64
2023/05/05 13:55:54;;;;;;;;;;;14.80;99.90;;;;;;5078590;28;20011;-65
2023/05/05 13:58:21;;;;;;;;;;;14.70;99.90;;;;;;5077641;28;19920;-66
2023/05/05 14:00:47;;;;;;;;;;;14.70;99.90;;;;;;5076495;28;19990;-65
2023/05/05 14:03:14;;;;;;;;;;;14.60;99.90;;;;;;5076672;28;19915;-66
2023/05/05 14:05:45;;;;;;;;;;;14.60;99.90;;;;;;5075911;28;20377;-66
2023/05/05 14:08:12;;;;;;;;;;;14.50;99.90;;;;;;5077438;28;19912;-67
2023/05/05 14:10:39;;;;;;;;;;;14.50;99.90;;;;;;5078156;28;19908;-67
2023/05/05 14:13:06;;;;;;;;;;;14.50;99.90;;;;;;5076696;28;20353;-67
2023/05/05 14:15:32;;;;;;;;;;;14.40;99.90;;;;;;5076280;28;20296;-66
2023/05/05 14:17:59;;;;;;;;;;;14.30;99.90;;;;;;5076384;28;19908;-65
2023/05/05 14:20:26;;;;;;;;;;;14.30;99.90;;;;;;5075675;28;19908;-68
2023/05/05 14:22:53;;;;;;;;;;;14.30;99.90;;;;;;5076299;28;19946;-67
2023/05/05 14:25:20;;;;;;;;;;;14.30;99.90;;;;;;5075537;28;19908;-66